createdAt,value
2022-07-28T00:01:18.605Z,10.40
2022-07-28T00:03:47.470Z,14.88
2022-07-28T00:06:14.508Z,8.73
2022-07-28T00:08:42.032Z,12.05
2022-07-28T00:11:09.028Z,11.25
2022-07-28T00:13:36.001Z,11.77
2022-07-28T00:16:03.696Z,9.25
2022-07-28T00:18:30.850Z,11.80
2022-07-28T00:20:57.894Z,13.93
2022-07-28T00:23:38.428Z,12.25
2022-07-28T00:26:07.970Z,8.23
2022-07-28T00:28:36.166Z,9.57
2022-07-28T00:31:05.569Z,11.55
2022-07-28T00:33:35.367Z,8.55
2022-07-28T00:36:03.190Z,11.75
2022-07-28T00:38:30.209Z,13.68
2022-07-28T00:40:57.206Z,10.52
2022-07-28T00:43:24.588Z,11.27
2022-07-28T00:45:51.631Z,8.52
2022-07-28T00:48:18.643Z,10.20
2022-07-28T00:50:46.557Z,10.45
2022-07-28T00:53:13.615Z,9.32
2022-07-28T00:56:05.496Z,9.98
2022-07-28T00:58:28.311Z,10.38
2022-07-28T01:00:55.608Z,9.73
2022-07-28T01:03:23.464Z,7.75
2022-07-28T01:06:04.335Z,8.18
2022-07-28T01:09:10.178Z,10.70
2022-07-28T01:11:53.216Z,8.13
2022-07-28T01:14:38.579Z,10.10
2022-07-28T01:17:17.295Z,6.75
2022-07-28T01:19:54.767Z,9.57
2022-07-28T01:22:25.427Z,6.72
2022-07-28T01:25:20.905Z,10.05
2022-07-28T01:28:13.269Z,12.23
2022-07-28T01:30:43.775Z,10.27
2022-07-28T01:33:20.230Z,8.95
2022-07-28T01:36:02.785Z,10.95
2022-07-28T01:38:33.080Z,8.15
2022-07-28T01:41:02.625Z,8.63
2022-07-28T01:43:34.656Z,8.38
2022-07-28T01:46:03.560Z,9.93
2022-07-28T01:48:33.150Z,12.15
2022-07-28T01:51:02.037Z,9.43
2022-07-28T01:53:32.133Z,6.72
2022-07-28T01:56:05.933Z,9.65
2022-07-28T01:58:35.416Z,8.60
2022-07-28T02:01:03.714Z,8.60
2022-07-28T02:03:32.719Z,9.38
2022-07-28T02:06:01.585Z,9.50
2022-07-28T02:08:30.183Z,10.15
2022-07-28T02:10:59.334Z,9.40
2022-07-28T02:13:26.696Z,10.57
2022-07-28T02:15:54.834Z,10.75
2022-07-28T02:18:23.317Z,9.77
2022-07-28T02:20:51.246Z,9.98
2022-07-28T02:23:19.768Z,9.63
2022-07-28T02:25:47.287Z,10.15
2022-07-28T02:28:16.797Z,9.52
2022-07-28T02:31:00.472Z,10.35
2022-07-28T02:33:58.835Z,8.55
2022-07-28T02:36:24.803Z,9.90
2022-07-28T02:38:56.137Z,10.80
2022-07-28T02:41:27.112Z,9.35
2022-07-28T02:43:59.687Z,8.10
2022-07-28T02:46:32.698Z,11.27
2022-07-28T02:49:05.562Z,10.48
2022-07-28T02:51:34.806Z,14.45
2022-07-28T02:54:03.171Z,9.38
2022-07-28T02:56:31.092Z,14.23
2022-07-28T02:58:59.848Z,11.48
2022-07-28T03:01:27.889Z,10.85
2022-07-28T03:03:56.606Z,11.63
2022-07-28T03:06:26.523Z,11.65
2022-07-28T03:08:57.655Z,11.60
2022-07-28T03:11:25.177Z,14.05
2022-07-28T03:13:52.167Z,12.50
2022-07-28T03:16:19.636Z,12.95
2022-07-28T03:18:46.704Z,15.95
2022-07-28T03:21:13.821Z,12.85
2022-07-28T03:23:43.704Z,14.40
2022-07-28T03:26:32.895Z,12.90
2022-07-28T03:29:01.541Z,13.88
2022-07-28T03:31:30.506Z,13.82
2022-07-28T03:33:57.887Z,14.27
2022-07-28T03:36:35.829Z,13.38
2022-07-28T03:39:06.269Z,16.25
2022-07-28T03:41:34.440Z,14.25
2022-07-28T03:44:01.907Z,13.98
2022-07-28T03:46:29.291Z,15.02
2022-07-28T03:48:56.877Z,16.38
2022-07-28T03:51:23.946Z,15.98
2022-07-28T03:53:51.059Z,15.98
2022-07-28T03:56:18.345Z,13.63
2022-07-28T03:58:45.456Z,12.73
2022-07-28T04:01:12.571Z,15.90
2022-07-28T04:03:43.988Z,15.80
2022-07-28T04:06:14.924Z,13.43
2022-07-28T04:08:43.630Z,15.82
2022-07-28T04:11:11.083Z,13.07
2022-07-28T04:13:38.256Z,11.90
2022-07-28T04:16:07.108Z,13.45
2022-07-28T04:18:34.515Z,11.82
2022-07-28T04:21:01.575Z,13.48
2022-07-28T04:23:29.153Z,15.05
2022-07-28T04:25:56.248Z,13.52
2022-07-28T04:28:23.262Z,17.27
2022-07-28T04:30:50.721Z,20.40
2022-07-28T04:33:17.828Z,16.80
2022-07-28T04:35:45.074Z,16.83
2022-07-28T04:38:12.904Z,14.82
2022-07-28T04:40:39.964Z,17.25
2022-07-28T04:43:07.055Z,17.05
2022-07-28T04:45:34.579Z,15.70
2022-07-28T04:48:01.673Z,16.40
2022-07-28T04:50:28.701Z,21.20
2022-07-28T04:52:56.121Z,16.23
2022-07-28T04:55:23.161Z,13.10
2022-07-28T04:57:50.159Z,18.98
2022-07-28T05:00:18.317Z,17.95
2022-07-28T05:02:46.192Z,17.73
2022-07-28T05:05:13.507Z,21.42
2022-07-28T05:07:41.756Z,22.85
2022-07-28T05:10:11.151Z,18.10
2022-07-28T05:12:38.583Z,18.00
2022-07-28T05:15:07.348Z,19.00
2022-07-28T05:17:34.531Z,23.40
2022-07-28T05:20:03.320Z,14.75
2022-07-28T05:22:42.256Z,22.35
2022-07-28T05:25:20.856Z,23.65
2022-07-28T05:27:48.713Z,19.38
2022-07-28T05:30:16.865Z,20.30
2022-07-28T05:32:44.496Z,17.90
2022-07-28T05:35:12.403Z,20.58
2022-07-28T05:37:39.470Z,17.23
2022-07-28T05:40:12.352Z,21.25
2022-07-28T05:42:40.530Z,19.40
2022-07-28T05:45:17.043Z,16.80
2022-07-28T05:47:49.848Z,12.55
2022-07-28T05:50:18.028Z,19.25
2022-07-28T05:52:46.674Z,11.98
2022-07-28T05:55:14.466Z,11.48
2022-07-28T05:57:42.108Z,11.25
2022-07-28T06:00:13.318Z,11.60
2022-07-28T06:02:41.741Z,13.73
2022-07-28T06:05:09.378Z,12.32
2022-07-28T06:07:43.173Z,11.05
2022-07-28T06:10:13.241Z,6.15
2022-07-28T06:12:49.398Z,10.13
2022-07-28T06:15:21.719Z,10.07
2022-07-28T06:17:50.437Z,9.23
2022-07-28T06:20:17.743Z,10.32
2022-07-28T06:22:47.453Z,10.00
2022-07-28T06:25:23.456Z,9.15
2022-07-28T06:27:52.426Z,10.20
2022-07-28T06:30:20.486Z,7.40
2022-07-28T06:32:48.318Z,7.70
2022-07-28T06:35:16.890Z,7.32
2022-07-28T06:37:45.344Z,6.25
2022-07-28T06:40:13.320Z,9.82
2022-07-28T06:42:41.631Z,7.05
2022-07-28T06:45:10.080Z,4.60
2022-07-28T06:47:48.786Z,9.38
2022-07-28T06:50:26.001Z,6.80
2022-07-28T06:52:55.785Z,7.53
2022-07-28T06:55:23.501Z,7.57
2022-07-28T06:57:51.068Z,5.60
2022-07-28T07:00:18.336Z,9.07
2022-07-28T07:02:45.753Z,7.22
2022-07-28T07:05:12.996Z,6.28
2022-07-28T07:07:43.284Z,5.13
2022-07-28T07:10:12.324Z,7.47
2022-07-28T07:12:39.604Z,4.10
2022-07-28T07:15:07.611Z,5.53
2022-07-28T07:17:35.075Z,8.02
2022-07-28T07:20:02.127Z,7.05
2022-07-28T07:22:29.347Z,6.95
2022-07-28T07:24:57.936Z,8.02
2022-07-28T07:27:25.130Z,4.28
2022-07-28T07:29:52.283Z,2.80
2022-07-28T07:32:19.614Z,5.80
2022-07-28T07:34:46.594Z,8.05
2022-07-28T07:37:13.805Z,5.47
2022-07-28T07:39:42.072Z,8.52
2022-07-28T07:42:09.234Z,6.82
2022-07-28T07:44:36.515Z,3.50
2022-07-28T07:47:04.338Z,4.75
2022-07-28T07:49:45.093Z,6.35
2022-07-28T07:52:14.451Z,4.68
2022-07-28T07:54:42.311Z,5.47
2022-07-28T07:57:09.933Z,2.17
2022-07-28T07:59:37.795Z,6.07
2022-07-28T08:02:05.209Z,7.40
2022-07-28T08:04:37.022Z,4.00
2022-07-28T08:07:05.738Z,4.25
2022-07-28T08:09:33.635Z,5.85
2022-07-28T08:12:00.688Z,9.52
2022-07-28T08:14:28.216Z,5.97
2022-07-28T08:16:55.259Z,4.43
2022-07-28T08:19:22.496Z,6.32
2022-07-28T08:21:51.289Z,6.70
2022-07-28T08:24:33.791Z,5.22
2022-07-28T08:27:04.984Z,3.85
2022-07-28T08:29:32.005Z,6.55
2022-07-28T08:31:59.169Z,6.25
2022-07-28T08:34:33.315Z,4.57
2022-07-28T08:37:03.416Z,3.13
2022-07-28T08:39:32.060Z,4.63
2022-07-28T08:42:13.873Z,8.23
2022-07-28T08:45:04.347Z,5.78
2022-07-28T08:47:46.087Z,6.38
2022-07-28T08:50:21.958Z,6.75
2022-07-28T08:52:53.168Z,5.45
2022-07-28T08:55:25.558Z,4.40
2022-07-28T08:58:00.036Z,15.80
2022-07-28T09:00:27.714Z,6.40
2022-07-28T09:02:57.086Z,4.03
2022-07-28T09:05:24.864Z,5.57
2022-07-28T09:07:54.946Z,8.65
2022-07-28T09:10:22.919Z,7.90
2022-07-28T09:12:50.540Z,9.18
2022-07-28T09:15:17.750Z,5.65
2022-07-28T09:17:44.877Z,5.78
2022-07-28T09:20:12.952Z,7.45
2022-07-28T09:23:01.546Z,5.00
2022-07-28T09:25:29.782Z,6.40
2022-07-28T09:28:05.227Z,7.72
2022-07-28T09:30:34.859Z,5.13
2022-07-28T09:33:41.399Z,7.78
2022-07-28T09:36:14.943Z,6.10
2022-07-28T09:38:42.159Z,4.55
2022-07-28T09:41:09.450Z,5.95
2022-07-28T09:43:39.110Z,5.05
2022-07-28T09:46:12.297Z,15.57
2022-07-28T09:48:49.139Z,4.63
2022-07-28T09:51:19.771Z,8.50
2022-07-28T09:53:47.264Z,10.20
2022-07-28T09:56:14.465Z,5.10
2022-07-28T09:58:52.241Z,4.28
2022-07-28T10:01:20.164Z,6.93
2022-07-28T10:03:51.335Z,5.00
2022-07-28T10:06:25.879Z,4.93
2022-07-28T10:08:54.035Z,5.47
2022-07-28T10:11:22.537Z,4.85
2022-07-28T10:13:55.239Z,6.05
2022-07-28T10:16:25.532Z,5.68
2022-07-28T10:18:53.225Z,5.90
2022-07-28T10:21:22.475Z,6.95
2022-07-28T10:23:59.218Z,2.22
2022-07-28T10:26:31.655Z,5.85
2022-07-28T10:31:34.864Z,5.95
2022-07-28T10:34:03.697Z,12.88
2022-07-28T10:36:33.285Z,8.20
2022-07-28T10:39:05.498Z,3.97
2022-07-28T10:41:40.324Z,7.93
2022-07-28T10:44:08.719Z,4.25
2022-07-28T10:46:37.404Z,7.35
2022-07-28T10:49:05.183Z,6.25
2022-07-28T10:51:48.811Z,7.72
2022-07-28T10:54:30.759Z,5.70
2022-07-28T10:57:04.961Z,6.97
2022-07-28T11:00:12.213Z,6.18
2022-07-28T11:02:52.926Z,4.22
2022-07-28T11:05:26.835Z,3.90
2022-07-28T11:07:54.434Z,3.90
2022-07-28T11:10:22.576Z,6.05
2022-07-28T11:12:58.035Z,7.68
2022-07-28T11:15:28.277Z,4.43
2022-07-28T11:18:08.781Z,8.00
2022-07-28T11:20:51.964Z,3.95
2022-07-28T11:23:46.571Z,5.28
2022-07-28T11:26:20.173Z,3.08
2022-07-28T11:29:02.013Z,4.57
2022-07-28T11:31:44.460Z,7.07
2022-07-28T11:34:16.705Z,6.10
2022-07-28T11:37:03.248Z,7.43
2022-07-28T11:39:42.705Z,6.15
2022-07-28T11:42:28.778Z,6.13
2022-07-28T11:44:56.922Z,6.03
2022-07-28T11:47:25.867Z,6.85
2022-07-28T11:50:14.181Z,5.65
2022-07-28T11:52:55.981Z,8.57
2022-07-28T11:55:55.561Z,8.73
2022-07-28T11:58:27.606Z,4.32
2022-07-28T12:01:17.664Z,5.53
2022-07-28T12:03:55.442Z,8.70
2022-07-28T12:06:29.095Z,6.93
2022-07-28T12:09:01.215Z,7.63
2022-07-28T12:11:33.186Z,5.95
2022-07-28T12:14:02.530Z,6.70
2022-07-28T12:16:31.599Z,6.88
2022-07-28T12:19:00.041Z,5.88
2022-07-28T12:21:45.961Z,11.32
2022-07-28T12:24:15.850Z,5.05
2022-07-28T12:26:47.321Z,5.18
2022-07-28T12:29:16.133Z,6.20
2022-07-28T12:31:55.005Z,4.78
2022-07-28T12:34:24.315Z,6.15
2022-07-28T12:37:02.260Z,4.70
2022-07-28T12:39:31.719Z,2.78
2022-07-28T12:42:07.580Z,7.70
2022-07-28T12:44:42.380Z,5.82
2022-07-28T12:47:11.996Z,7.05
2022-07-28T12:49:41.119Z,8.10
2022-07-28T12:52:22.715Z,8.23
2022-07-28T12:54:54.829Z,6.60
2022-07-28T12:57:48.154Z,4.78
2022-07-28T13:00:18.626Z,8.63
2022-07-28T13:02:45.991Z,12.77
2022-07-28T13:05:27.034Z,6.70
2022-07-28T13:08:05.711Z,8.88
2022-07-28T13:10:33.147Z,11.70
2022-07-28T13:13:02.578Z,6.40
2022-07-28T13:15:29.663Z,6.30
2022-07-28T13:17:56.699Z,7.13
2022-07-28T13:20:24.748Z,6.65
2022-07-28T13:22:53.132Z,6.07
2022-07-28T13:25:20.946Z,14.05
2022-07-28T13:27:54.198Z,7.75
2022-07-28T13:30:23.243Z,8.45
2022-07-28T13:32:50.843Z,7.53
2022-07-28T13:35:18.189Z,6.88
2022-07-28T13:37:46.334Z,8.63
2022-07-28T13:40:13.738Z,9.27
2022-07-28T13:42:40.753Z,6.70
2022-07-28T13:45:22.249Z,7.28
2022-07-28T13:47:51.956Z,8.07
2022-07-28T13:50:19.817Z,9.25
2022-07-28T13:52:47.308Z,6.63
2022-07-28T13:55:17.748Z,8.48
2022-07-28T13:57:49.084Z,5.28
2022-07-28T14:00:17.736Z,9.15
2022-07-28T14:02:46.938Z,5.68
2022-07-28T14:05:14.008Z,7.05
2022-07-28T14:07:48.244Z,5.22
2022-07-28T14:10:17.598Z,9.10
2022-07-28T14:12:46.316Z,7.22
2022-07-28T14:15:14.421Z,6.68
2022-07-28T14:17:44.758Z,6.22
2022-07-28T14:20:14.759Z,5.80
2022-07-28T14:22:43.176Z,10.20
2022-07-28T14:25:10.885Z,10.25
2022-07-28T14:27:38.477Z,5.00
2022-07-28T14:30:06.869Z,7.38
2022-07-28T14:32:33.865Z,6.90
2022-07-28T14:35:02.334Z,7.05
2022-07-28T14:37:36.241Z,8.30
2022-07-28T14:40:09.121Z,5.10
2022-07-28T14:42:37.050Z,10.05
2022-07-28T14:45:04.342Z,7.47
2022-07-28T14:47:44.184Z,5.72
2022-07-28T14:50:13.430Z,4.95
2022-07-28T14:52:44.891Z,5.07
2022-07-28T14:55:12.905Z,3.65
2022-07-28T14:57:48.356Z,7.18
2022-07-28T15:00:20.579Z,5.70
2022-07-28T15:02:47.984Z,13.38
2022-07-28T15:05:15.243Z,5.75
2022-07-28T15:07:42.923Z,6.07
2022-07-28T15:10:10.574Z,8.15
2022-07-28T15:12:38.071Z,6.40
2022-07-28T15:15:05.994Z,7.40
2022-07-28T15:17:33.439Z,6.40
2022-07-28T15:20:00.435Z,5.45
2022-07-28T15:22:28.026Z,9.05
2022-07-28T15:24:55.018Z,10.05
2022-07-28T15:27:22.036Z,10.23
2022-07-28T15:29:52.092Z,5.72
2022-07-28T15:32:24.398Z,10.70
2022-07-28T15:34:56.065Z,10.95
2022-07-28T15:37:23.124Z,7.45
2022-07-28T15:39:50.306Z,8.00
2022-07-28T15:42:17.688Z,7.10
2022-07-28T15:44:44.795Z,5.30
2022-07-28T15:47:11.824Z,5.95
2022-07-28T15:49:39.358Z,5.63
2022-07-28T15:52:06.482Z,7.20
2022-07-28T15:54:33.469Z,4.50
2022-07-28T15:57:00.988Z,11.40
2022-07-28T15:59:49.062Z,9.23
2022-07-28T16:02:17.539Z,4.43
2022-07-28T16:04:51.064Z,8.52
2022-07-28T16:07:22.534Z,4.32
2022-07-28T16:09:51.507Z,6.97
2022-07-28T16:12:18.798Z,8.63
2022-07-28T16:14:46.275Z,10.25
2022-07-28T16:17:13.613Z,4.07
2022-07-28T16:19:50.033Z,5.93
2022-07-28T16:22:18.812Z,9.68
2022-07-28T16:24:46.199Z,14.52
2022-07-28T16:27:13.218Z,5.35
2022-07-28T16:29:41.454Z,8.25
2022-07-28T16:32:08.444Z,6.07
2022-07-28T16:34:35.459Z,5.43
2022-07-28T16:37:05.976Z,14.77
2022-07-28T16:39:34.053Z,6.15
2022-07-28T16:42:01.493Z,6.63
2022-07-28T16:44:29.634Z,9.23
2022-07-28T16:46:57.143Z,9.32
2022-07-28T16:49:24.909Z,7.40
2022-07-28T16:51:52.398Z,4.93
2022-07-28T16:54:20.013Z,8.30
2022-07-28T16:56:47.514Z,5.95
2022-07-28T16:59:15.096Z,6.47
2022-07-28T17:01:46.243Z,6.47
2022-07-28T17:04:17.454Z,14.23
2022-07-28T17:06:46.371Z,12.52
2022-07-28T17:09:14.923Z,12.13
2022-07-28T17:11:43.056Z,13.80
2022-07-28T17:14:11.530Z,7.85
2022-07-28T17:16:38.945Z,5.45
2022-07-28T17:19:06.174Z,6.25
2022-07-28T17:21:33.723Z,7.70
2022-07-28T17:24:00.785Z,6.82
2022-07-28T17:29:15.454Z,7.75
2022-07-28T17:31:42.595Z,10.18
2022-07-28T17:34:09.939Z,8.45
2022-07-28T17:36:37.519Z,12.45
2022-07-28T17:39:05.502Z,7.57
2022-07-28T17:41:33.421Z,10.52
2022-07-28T17:44:01.029Z,10.77
2022-07-28T17:46:29.239Z,12.13
2022-07-28T17:48:56.342Z,10.32
2022-07-28T17:51:23.868Z,10.55
2022-07-28T17:53:51.015Z,7.47
2022-07-28T17:56:18.434Z,8.80
2022-07-28T17:58:46.058Z,11.60
2022-07-28T18:01:14.423Z,11.00
2022-07-28T18:03:56.829Z,10.90
2022-07-28T18:06:37.574Z,12.07
2022-07-28T18:09:08.126Z,12.90
2022-07-28T18:11:56.966Z,13.55
2022-07-28T18:14:28.888Z,21.45
2022-07-28T18:16:57.491Z,20.00
2022-07-28T18:19:24.825Z,11.95
2022-07-28T18:21:51.887Z,12.73
2022-07-28T18:24:20.034Z,14.20
2022-07-28T18:26:47.927Z,13.27
2022-07-28T18:29:15.131Z,11.70
2022-07-28T18:31:46.480Z,13.43
2022-07-28T18:34:15.045Z,12.68
2022-07-28T18:36:42.620Z,12.38
2022-07-28T18:39:10.318Z,13.50
2022-07-28T18:41:47.350Z,11.88
2022-07-28T18:44:19.456Z,14.63
2022-07-28T18:46:47.269Z,12.35
2022-07-28T18:49:14.883Z,10.98
2022-07-28T18:51:45.200Z,11.43
2022-07-28T18:54:17.493Z,19.23
2022-07-28T18:56:47.970Z,18.70
2022-07-28T18:59:15.123Z,18.45
2022-07-28T19:01:42.217Z,13.38
2022-07-28T19:04:11.983Z,24.27
2022-07-28T19:06:39.075Z,14.80
2022-07-28T19:09:06.108Z,13.48
2022-07-28T19:11:33.700Z,12.48
2022-07-28T19:14:01.228Z,15.43
2022-07-28T19:16:28.314Z,18.23
2022-07-28T19:18:55.933Z,14.95
2022-07-28T19:21:23.555Z,9.02
2022-07-28T19:23:50.575Z,10.57
2022-07-28T19:26:18.197Z,7.15
2022-07-28T19:28:45.819Z,10.45
2022-07-28T19:31:12.929Z,10.57
2022-07-28T19:33:43.779Z,15.05
2022-07-28T19:36:12.257Z,7.80
2022-07-28T19:38:39.495Z,7.68
2022-07-28T19:41:10.289Z,9.07
2022-07-28T19:43:37.359Z,14.98
2022-07-28T19:46:04.587Z,12.80
2022-07-28T19:48:32.517Z,16.55
2022-07-28T19:51:00.811Z,12.98
2022-07-28T19:53:31.651Z,11.73
2022-07-28T19:55:59.767Z,14.52
2022-07-28T19:58:28.018Z,17.30
2022-07-28T20:00:56.423Z,12.45
2022-07-28T20:04:01.862Z,16.75
2022-07-28T20:06:12.333Z,13.13
2022-07-28T20:08:39.903Z,14.18
2022-07-28T20:11:07.326Z,12.85
2022-07-28T20:13:34.700Z,12.27
2022-07-28T20:16:02.255Z,10.82
2022-07-28T20:18:29.322Z,11.63
2022-07-28T20:20:56.410Z,9.65
2022-07-28T20:23:24.064Z,11.38
2022-07-28T20:25:51.045Z,8.88
2022-07-28T20:28:18.046Z,10.75
2022-07-28T20:30:45.699Z,12.98
2022-07-28T20:33:12.780Z,10.40
2022-07-28T20:35:39.858Z,13.43
2022-07-28T20:38:07.376Z,11.98
2022-07-28T20:40:37.202Z,14.05
2022-07-28T20:43:04.201Z,10.85
2022-07-28T20:45:31.923Z,14.60
2022-07-28T20:47:59.350Z,11.55
2022-07-28T20:50:26.619Z,10.48
2022-07-28T20:52:54.309Z,10.52
2022-07-28T20:55:21.478Z,11.50
2022-07-28T20:57:53.674Z,11.15
2022-07-28T21:00:22.683Z,12.52
2022-07-28T21:02:50.235Z,11.73
2022-07-28T21:05:34.757Z,12.00
2022-07-28T21:08:06.364Z,10.55
2022-07-28T21:10:37.141Z,16.05
2022-07-28T21:13:04.738Z,14.90
2022-07-28T21:15:31.968Z,12.52
2022-07-28T21:17:59.816Z,13.55
2022-07-28T21:20:27.338Z,10.20
2022-07-28T21:22:54.390Z,13.57
2022-07-28T21:25:21.527Z,9.30
2022-07-28T21:27:48.939Z,9.93
2022-07-28T21:30:15.978Z,8.15
2022-07-28T21:32:43.014Z,9.57
2022-07-28T21:35:14.218Z,9.27
2022-07-28T21:37:41.436Z,7.95
2022-07-28T21:40:08.939Z,16.13
2022-07-28T21:42:36.384Z,11.07
2022-07-28T21:45:03.807Z,9.98
2022-07-28T21:47:38.389Z,10.43
2022-07-28T21:50:06.082Z,10.38
2022-07-28T21:52:33.088Z,10.85
2022-07-28T21:55:02.001Z,12.30
2022-07-28T21:57:29.179Z,9.30
2022-07-28T21:59:56.418Z,9.15
2022-07-28T22:02:24.217Z,12.45
2022-07-28T22:04:52.442Z,11.65
2022-07-28T22:07:19.529Z,9.18
2022-07-28T22:09:46.950Z,8.35
2022-07-28T22:12:14.133Z,9.77
2022-07-28T22:14:41.179Z,11.05
2022-07-28T22:17:08.678Z,8.68
2022-07-28T22:19:36.501Z,11.85
2022-07-28T22:22:03.675Z,11.00
2022-07-28T22:24:31.186Z,9.43
2022-07-28T22:26:58.349Z,18.38
2022-07-28T22:29:25.383Z,10.68
2022-07-28T22:31:56.015Z,10.70
2022-07-28T22:34:26.567Z,13.73
2022-07-28T22:36:54.042Z,16.77
2022-07-28T22:39:21.043Z,12.38
2022-07-28T22:41:48.487Z,11.48
2022-07-28T22:44:16.402Z,11.82
2022-07-28T22:46:43.779Z,9.70
2022-07-28T22:49:10.946Z,10.07
2022-07-28T22:51:38.500Z,12.05
2022-07-28T22:54:05.608Z,10.93
2022-07-28T22:56:34.731Z,11.88
2022-07-28T22:59:03.879Z,9.52
2022-07-28T23:01:30.915Z,9.85
2022-07-28T23:03:58.966Z,8.25
2022-07-28T23:06:27.157Z,8.45
2022-07-28T23:08:54.287Z,10.55
2022-07-28T23:11:21.455Z,10.23
2022-07-28T23:13:48.935Z,10.13
2022-07-28T23:16:15.982Z,9.73
2022-07-28T23:18:44.245Z,10.02
2022-07-28T23:21:12.007Z,10.63
2022-07-28T23:23:39.225Z,10.82
2022-07-28T23:26:06.423Z,10.05
2022-07-28T23:28:34.032Z,11.50
2022-07-28T23:31:01.008Z,12.75
2022-07-28T23:33:54.659Z,10.57
2022-07-28T23:36:25.914Z,14.13
2022-07-28T23:38:57.721Z,13.82
2022-07-28T23:41:25.906Z,14.38
2022-07-28T23:43:53.434Z,13.02
2022-07-28T23:46:21.004Z,11.52
2022-07-28T23:48:49.835Z,12.40
2022-07-28T23:51:16.930Z,11.27
2022-07-28T23:53:44.211Z,11.10
2022-07-28T23:56:13.853Z,12.02
2022-07-28T23:58:41.085Z,12.30
